Time;durP1;ratioP1;P1;durP2;ratioP2;P2;SDS_P1;SDS_P2;PMS_P1;PMS_P2;Temp;Humidity;BMP_temperature;BMP_pressure;BME280_temperature;BME280_humidity;BME280_pressure;Samples;Min_cycle;Max_cycle;Signal;HPM_P1;HPM_P2
2022/10/25 00:01:46;;;;;;;103.43;66.50;;;;;;;29.07;75.32;100994.03;5095778;27;66774;-31
2022/10/25 00:04:17;;;;;;;83.72;56.17;;;;;;;29.05;76.09;100996.94;5101658;27;69184;-32
2022/10/25 00:06:47;;;;;;;82.35;53.35;;;;;;;29.07;76.47;100992.16;5098582;27;65315;-33
2022/10/25 00:09:18;;;;;;;82.70;48.55;;;;;;;29.13;75.22;101002.13;5099737;27;69996;-32
2022/10/25 00:11:48;;;;;;;65.63;43.58;;;;;;;29.13;76.88;100998.59;5087230;27;66616;-33
2022/10/25 00:14:19;;;;;;;61.63;38.03;;;;;;;29.16;76.54;101019.81;5099596;27;69575;-33
2022/10/25 00:17:05;;;;;;;54.20;33.53;;;;;;;29.07;77.25;100999.44;5097285;27;65774;-32
2022/10/25 00:19:35;;;;;;;43.35;29.48;;;;;;;29.22;77.25;101012.75;5099239;27;70112;-31
2022/10/25 00:22:06;;;;;;;39.28;27.48;;;;;;;29.23;77.38;101014.44;5091491;27;65565;-31
2022/10/25 00:24:36;;;;;;;40.13;27.13;;;;;;;29.23;78.15;101020.66;5089196;27;69904;-32
2022/10/25 00:27:07;;;;;;;35.65;23.48;;;;;;;29.26;78.40;101025.66;5085179;27;66141;-33
2022/10/25 00:29:37;;;;;;;25.30;21.85;;;;;;;29.24;78.13;101041.22;5083475;27;69932;-32
2022/10/25 00:32:07;;;;;;;26.30;20.73;;;;;;;29.31;76.59;101033.97;5087476;27;66220;-32
2022/10/25 00:34:40;;;;;;;29.30;20.55;;;;;;;29.32;77.86;101045.59;5082180;27;70513;-32
2022/10/25 00:37:11;;;;;;;23.92;20.38;;;;;;;29.31;77.89;101046.63;5081352;27;65596;-31
2022/10/25 00:39:41;;;;;;;21.20;18.90;;;;;;;29.26;77.68;101035.63;5085439;27;69976;-31
2022/10/25 00:42:23;;;;;;;20.70;18.58;;;;;;;28.90;77.71;100977.34;5087452;27;66548;-32
2022/10/25 00:45:00;;;;;;;26.08;18.60;;;;;;;29.30;77.85;101037.69;5084092;27;69994;-31
2022/10/25 00:47:45;;;;;;;19.20;17.13;;;;;;;28.95;77.88;100991.91;5088389;27;66577;-32
2022/10/25 00:50:19;;;;;;;19.40;17.35;;;;;;;29.38;77.86;101045.59;5085221;27;70410;-32
2022/10/25 00:52:53;;;;;;;18.77;16.80;;;;;;;29.22;74.42;101023.56;5087180;27;66233;-31
2022/10/25 00:55:26;;;;;;;18.20;15.43;;;;;;;29.50;73.82;101063.91;5087081;27;70392;-32
2022/10/25 00:58:04;;;;;;;16.38;14.85;;;;;;;29.51;73.11;101066.41;5089286;27;66062;-31
2022/10/25 01:00:53;;;;;;;16.70;15.13;;;;;;;28.98;72.85;100968.22;5081359;27;70334;-32
2022/10/25 01:03:24;;;;;;;13.93;12.88;;;;;;;29.58;72.43;101058.28;5083790;27;65125;-31
2022/10/25 01:05:58;;;;;;;15.95;14.65;;;;;;;29.45;72.42;101034.81;5084517;27;70137;-32
2022/10/25 01:08:29;;;;;;;16.55;15.18;;;;;;;29.63;72.58;101069.34;5091924;27;66145;-32
2022/10/25 01:11:00;;;;;;;16.50;14.98;;;;;;;29.64;72.24;101073.72;5094121;27;69865;-31
2022/10/25 01:13:30;;;;;;;16.83;15.10;;;;;;;29.66;72.14;101077.06;5087333;27;66959;-31
2022/10/25 01:16:04;;;;;;;15.77;14.48;;;;;;;29.60;71.71;101069.75;5094672;27;69408;-31
2022/10/25 01:19:05;;;;;;;16.50;14.32;;;;;;;29.57;71.92;101084.50;5077845;27;66216;-31
2022/10/25 01:21:51;;;;;;;14.57;13.50;;;;;;;29.53;70.96;101058.94;5088957;27;70283;-31
2022/10/25 01:24:40;;;;;;;14.07;12.95;;;;;;;29.60;71.67;101096.78;5099180;27;65605;-31
2022/10/25 01:27:30;;;;;;;14.80;13.63;;;;;;;29.69;70.90;101100.13;5089446;27;43118;-31
2022/10/25 01:30:31;;;;;;;13.68;12.50;;;;;;;29.73;71.17;101107.63;5090796;27;65745;-31
2022/10/25 01:33:18;;;;;;;13.57;12.43;;;;;;;29.71;71.11;101104.31;5066139;27;69387;-32
2022/10/25 01:36:09;;;;;;;13.30;12.43;;;;;;;29.80;70.78;101107.63;5099667;27;67082;-30
2022/10/25 01:38:43;;;;;;;13.35;12.25;;;;;;;29.81;70.32;101110.13;5094655;27;69735;-31
2022/10/25 01:41:56;;;;;;;13.30;12.40;;;;;;;29.30;70.81;101036.88;5098156;27;65387;-32
2022/10/25 01:45:05;;;;;;;13.02;11.88;;;;;;;29.71;70.55;101112.41;5085069;27;70604;-31
2022/10/25 01:47:51;;;;;;;13.55;12.18;;;;;;;29.76;70.26;101099.09;5088502;27;65792;-32
2022/10/25 01:50:27;;;;;;;12.93;11.93;;;;;;;29.84;70.24;101103.50;5085527;27;70237;-32
2022/10/25 01:52:57;;;;;;;12.10;11.13;;;;;;;29.83;70.84;101089.09;5096103;27;67128;-32
2022/10/25 01:55:34;;;;;;;11.98;11.00;;;;;;;29.48;69.87;101023.59;5096904;27;70192;-32
2022/10/25 01:58:16;;;;;;;11.63;10.55;;;;;;;29.96;70.27;101101.81;5085036;27;66308;-32
2022/10/25 02:01:01;;;;;;;11.43;10.63;;;;;;;29.75;69.66;101066.84;5091095;27;69103;-31
2022/10/25 02:03:35;;;;;;;11.45;10.65;;;;;;;30.00;69.70;101099.50;5094312;27;66013;-31
2022/10/25 02:06:06;;;;;;;11.35;10.57;;;;;;;30.02;69.99;101100.97;5098100;27;70201;-31
2022/10/25 02:08:45;;;;;;;11.68;10.45;;;;;;;30.03;69.87;101112.59;5098134;27;65570;-30
2022/10/25 02:11:15;;;;;;;12.07;11.05;;;;;;;30.05;69.81;101103.25;5100758;27;69820;-31
2022/10/25 02:14:15;;;;;;;11.23;10.50;;;;;;;30.03;69.30;101102.66;5102327;27;66779;-31
2022/10/25 02:17:07;;;;;;;10.98;10.05;;;;;;;29.97;69.70;101102.63;5098596;27;69685;-31
2022/10/25 02:19:44;;;;;;;10.70;9.88;;;;;;;29.91;69.75;101071.03;5099307;27;66679;-30
2022/10/25 02:22:17;;;;;;;10.63;9.73;;;;;;;30.13;69.22;101101.38;5090893;27;69715;-33
2022/10/25 02:24:50;;;;;;;9.93;9.35;;;;;;;29.63;69.13;101009.88;5098844;27;66414;-32
2022/10/25 02:27:22;;;;;;;10.75;9.88;;;;;;;30.18;69.05;101105.13;5092388;27;70437;-30
2022/10/25 02:29:54;;;;;;;9.95;9.25;;;;;;;30.21;69.00;101103.88;5094066;27;66720;-31
2022/10/25 02:32:24;;;;;;;10.30;9.55;;;;;;;30.21;69.35;101111.97;5088141;27;69684;-31
2022/10/25 02:34:55;;;;;;;9.70;8.90;;;;;;;30.25;69.19;101113.25;5101608;27;66168;-32
2022/10/25 02:37:25;;;;;;;9.23;8.52;;;;;;;30.27;69.17;101120.13;5099543;27;69622;-32
2022/10/25 02:39:56;;;;;;;9.75;9.05;;;;;;;30.30;69.13;101113.44;5097265;27;66053;-31
2022/10/25 02:42:27;;;;;;;9.82;9.02;;;;;;;30.32;68.99;101118.66;5100908;27;70176;-32
2022/10/25 02:44:57;;;;;;;9.38;8.70;;;;;;;30.34;68.58;101108.44;5101325;27;66218;-32
2022/10/25 02:47:27;;;;;;;9.55;8.95;;;;;;;30.36;68.88;101118.00;5099514;27;70113;-32
2022/10/25 02:49:58;;;;;;;9.63;8.75;;;;;;;30.37;68.54;101118.84;5096335;27;66133;-34
2022/10/25 02:52:28;;;;;;;9.15;8.32;;;;;;;30.42;68.28;101121.75;5080706;27;70531;-32
2022/10/25 02:54:59;;;;;;;8.68;8.07;;;;;;;30.44;68.51;101111.56;5085933;27;66003;-32
2022/10/25 02:57:37;;;;;;;9.27;8.40;;;;;;;30.44;67.85;101138.63;5084792;27;69537;-31
2022/10/25 03:00:08;;;;;;;8.55;7.97;;;;;;;30.48;68.25;101121.75;5088149;27;65594;-31
2022/10/25 03:02:38;;;;;;;8.83;7.90;;;;;;;30.46;68.32;101109.47;5085519;27;70120;-31
2022/10/25 03:05:09;;;;;;;9.05;8.13;;;;;;;30.55;68.01;101119.00;5092010;27;65964;-32
2022/10/25 03:07:40;;;;;;;8.30;7.68;;;;;;;30.47;68.01;101100.28;5084810;27;70500;-32
2022/10/25 03:10:10;;;;;;;7.70;6.93;;;;;;;30.60;67.96;101108.38;5094920;27;66380;-31
2022/10/25 03:12:42;;;;;;;9.02;8.27;;;;;;;30.61;67.76;101099.22;5089722;27;69016;-32
2022/10/25 03:15:12;;;;;;;8.00;7.40;;;;;;;30.63;67.93;101091.72;5088062;27;65209;-32
2022/10/25 03:17:43;;;;;;;7.55;7.13;;;;;;;30.67;67.66;101097.53;5092856;27;70633;-32
2022/10/25 03:20:14;;;;;;;7.63;7.03;;;;;;;30.69;68.05;101090.84;5084202;27;66445;-32
2022/10/25 03:22:45;;;;;;;7.35;6.95;;;;;;;30.69;68.08;101084.59;5084691;27;70745;-31
2022/10/25 03:25:15;;;;;;;7.78;7.18;;;;;;;30.73;67.41;101081.28;5087420;27;66707;-32
2022/10/25 03:27:46;;;;;;;8.55;7.88;;;;;;;30.72;67.61;101071.47;5092806;27;69498;-31
2022/10/25 03:30:18;;;;;;;7.13;6.72;;;;;;;30.77;67.54;101070.00;5094579;27;66707;-31
2022/10/25 03:32:48;;;;;;;6.68;6.07;;;;;;;30.81;67.07;101071.25;5098984;27;69218;-31
2022/10/25 03:35:19;;;;;;;6.70;6.20;;;;;;;30.75;67.69;101050.44;5096514;27;66371;-31
2022/10/25 03:37:51;;;;;;;6.10;5.60;;;;;;;30.88;67.22;101061.22;5086438;27;70451;-31
2022/10/25 03:40:22;;;;;;;6.85;5.82;;;;;;;30.75;67.45;101036.88;5088177;27;65361;-32
2022/10/25 03:42:52;;;;;;;5.72;5.43;;;;;;;30.92;67.14;101048.91;5086429;27;70371;-31
2022/10/25 03:45:23;;;;;;;6.03;5.63;;;;;;;30.93;67.03;101047.88;5084865;27;66263;-32
2022/10/25 03:47:54;;;;;;;5.88;5.47;;;;;;;30.91;67.29;101034.53;5081347;27;69849;-32
2022/10/25 03:50:25;;;;;;;5.40;5.10;;;;;;;30.97;66.67;101049.09;5081285;27;66050;-31
2022/10/25 03:52:56;;;;;;;5.70;5.30;;;;;;;31.00;67.14;101047.81;5084521;27;70861;-32
2022/10/25 03:55:27;;;;;;;5.70;5.30;;;;;;;30.92;66.61;101019.09;5089600;27;65246;-31
2022/10/25 03:58:02;;;;;;;5.55;5.25;;;;;;;31.05;66.53;101042.59;5085297;27;69898;-32
2022/10/25 04:00:33;;;;;;;5.93;5.43;;;;;;;31.06;66.40;101038.81;5081963;27;65682;-32
2022/10/25 04:03:04;;;;;;;5.30;5.00;;;;;;;31.08;66.68;101040.25;5094762;27;71884;-31
2022/10/25 04:05:41;;;;;;;5.40;4.97;;;;;;;31.11;66.35;101039.81;5088363;27;66595;-31
2022/10/25 04:08:12;;;;;;;11.15;5.30;;;;;;;31.09;66.48;101025.69;5090876;27;70326;-32
2022/10/25 04:10:54;;;;;;;6.40;5.07;;;;;;;31.13;66.32;101026.91;5083933;27;66178;-33
2022/10/25 04:13:25;;;;;;;5.57;5.17;;;;;;;31.07;66.49;101019.66;5090946;27;70537;-31
2022/10/25 04:15:56;;;;;;;5.47;5.07;;;;;;;30.84;66.41;100966.03;5087698;27;65592;-32
2022/10/25 04:18:27;;;;;;;5.60;5.20;;;;;;;31.16;66.15;101004.78;5086178;27;70514;-31
2022/10/25 04:20:58;;;;;;;7.32;4.72;;;;;;;31.20;66.05;100999.75;5081428;27;65622;-32
2022/10/25 04:23:30;;;;;;;13.48;5.13;;;;;;;31.25;66.49;101009.94;5084456;27;69409;-30
2022/10/25 04:26:01;;;;;;;6.90;4.87;;;;;;;31.27;65.93;101005.13;5085990;27;65316;-32
2022/10/25 04:28:32;;;;;;;5.03;4.73;;;;;;;31.15;66.04;100981.44;5090694;27;70249;-32
2022/10/25 04:31:03;;;;;;;4.70;4.40;;;;;;;31.27;66.23;100980.75;5084711;27;66691;-31
2022/10/25 04:33:34;;;;;;;5.10;4.65;;;;;;;31.27;65.85;100967.19;5086161;27;70347;-32
2022/10/25 04:36:05;;;;;;;5.20;4.80;;;;;;;30.96;65.69;100912.00;5088691;27;66648;-32
2022/10/25 04:38:36;;;;;;;12.70;4.80;;;;;;;31.33;66.01;100956.28;5079365;27;69854;-31
2022/10/25 04:41:08;;;;;;;5.03;4.63;;;;;;;31.35;65.94;100964.22;5091829;27;66385;-33
2022/10/25 04:43:39;;;;;;;5.30;4.90;;;;;;;31.36;65.80;100949.63;5097627;27;70189;-31
2022/10/25 04:46:10;;;;;;;9.93;5.40;;;;;;;31.41;65.52;100941.66;5097047;27;65621;-32
2022/10/25 04:48:42;;;;;;;6.68;6.25;;;;;;;31.42;65.86;100937.88;5098263;27;69309;-30
2022/10/25 04:51:13;;;;;;;7.90;7.30;;;;;;;31.43;65.96;100936.84;5098196;27;66151;-31
2022/10/25 04:53:44;;;;;;;;;;;;;;;31.07;66.49;100935.66;5096935;27;69744;-31
2022/10/25 04:56:24;;;;;;;10.38;6.25;;;;;;;31.42;65.94;100927.03;5097846;27;65512;-31
2022/10/25 04:58:55;;;;;;;6.47;5.80;;;;;;;31.45;65.66;100923.06;5097066;27;69310;-35
2022/10/25 05:01:26;;;;;;;6.40;5.87;;;;;;;31.46;65.98;100914.72;5098745;27;67326;-33
2022/10/25 05:03:57;;;;;;;6.83;6.20;;;;;;;31.49;65.77;100911.56;5091252;27;69698;-32
2022/10/25 05:06:29;;;;;;;;;;;;;;;31.14;66.89;100903.09;5091944;27;67094;-33
2022/10/25 05:08:59;;;;;;;7.22;5.97;;;;;;;31.46;65.98;100884.06;5099014;27;70252;-32
2022/10/25 05:11:39;;;;;;;7.80;7.00;;;;;;;31.54;65.71;100887.31;5090336;27;65742;-32
2022/10/25 05:14:10;;;;;;;8.07;7.32;;;;;;;31.48;65.83;100863.81;5096779;27;69730;-32
2022/10/25 05:16:42;;;;;;;7.90;7.20;;;;;;;31.57;65.55;100883.31;5089864;27;66029;-34
2022/10/25 05:19:12;;;;;;;9.60;8.88;;;;;;;31.50;65.63;100858.97;5093025;27;70294;-32
2022/10/25 05:21:43;;;;;;;8.88;8.07;;;;;;;31.63;65.45;100868.03;5082751;27;65839;-33
2022/10/25 05:24:15;;;;;;;8.77;8.15;;;;;;;31.62;65.45;100867.19;5096126;27;69698;-34
2022/10/25 05:26:46;;;;;;;7.78;7.22;;;;;;;31.65;65.59;100865.91;5091493;27;66309;-33
2022/10/25 05:29:17;;;;;;;7.60;7.10;;;;;;;31.56;65.10;100851.81;5094553;27;70542;-34
2022/10/25 05:31:48;;;;;;;7.20;6.60;;;;;;;31.57;65.30;100851.63;5087851;27;65379;-32
2022/10/25 05:34:19;;;;;;;7.85;6.38;;;;;;;31.66;65.12;100859.44;5095945;27;69884;-32
2022/10/25 05:36:50;;;;;;;7.13;6.47;;;;;;;31.59;65.37;100835.97;5083263;27;66683;-34
2022/10/25 05:39:21;;;;;;;6.88;6.18;;;;;;;31.67;65.32;100842.13;5079031;27;70929;-32
2022/10/25 05:41:52;;;;;;;7.00;6.50;;;;;;;31.64;65.32;100818.16;5077294;27;65486;-31
2022/10/25 05:44:23;;;;;;;6.20;5.80;;;;;;;31.68;65.51;100808.50;5079730;27;70860;-33
2022/10/25 05:46:54;;;;;;;7.10;6.60;;;;;;;31.64;65.36;100804.59;5078811;27;66289;-34
2022/10/25 05:49:25;;;;;;;6.60;5.97;;;;;;;31.71;65.24;100818.94;5078975;27;70240;-34
2022/10/25 05:51:56;;;;;;;7.45;6.75;;;;;;;31.37;65.23;100761.53;5080062;27;65658;-32
2022/10/25 05:54:27;;;;;;;7.63;6.20;;;;;;;31.63;65.05;100797.53;5098509;27;69816;-32
2022/10/25 05:56:58;;;;;;;8.45;6.60;;;;;;;31.72;64.98;100807.00;5088585;27;65877;-32
2022/10/25 05:59:29;;;;;;;7.78;7.22;;;;;;;31.77;65.19;100807.97;5084829;27;69307;-32
2022/10/25 06:02:00;;;;;;;10.03;9.20;;;;;;;31.76;65.09;100802.78;5078971;27;66571;-32
2022/10/25 06:04:31;;;;;;;7.82;7.22;;;;;;;31.76;64.91;100798.19;5082355;27;70226;-32
2022/10/25 06:07:02;;;;;;;7.80;7.20;;;;;;;31.78;65.30;100800.66;5081592;27;66206;-33
2022/10/25 06:09:53;;;;;;;8.25;7.57;;;;;;;31.79;65.32;100802.34;5081450;27;69665;-31
2022/10/25 06:12:23;;;;;;;10.43;9.50;;;;;;;31.78;64.79;100776.25;5081730;27;66050;-31
2022/10/25 06:14:54;;;;;;;10.90;9.93;;;;;;;31.86;65.13;100781.38;5080168;27;70382;-31
2022/10/25 06:17:25;;;;;;;11.18;10.43;;;;;;;31.87;64.66;100772.16;5086736;27;66083;-32
2022/10/25 06:19:56;;;;;;;9.50;8.90;;;;;;;31.89;64.83;100761.91;5080366;27;70146;-32
2022/10/25 06:22:27;;;;;;;9.30;8.73;;;;;;;31.89;64.95;100759.19;5078811;27;66287;-32
2022/10/25 06:24:57;;;;;;;11.30;10.57;;;;;;;31.89;64.80;100742.94;5084593;27;69851;-32
2022/10/25 06:27:28;;;;;;;15.65;9.40;;;;;;;31.80;64.98;100717.19;5080213;27;65296;-32
2022/10/25 06:30:00;;;;;;;12.30;10.02;;;;;;;31.93;64.92;100727.88;5082190;27;69860;-32
2022/10/25 06:32:36;;;;;;;11.27;10.35;;;;;;;31.97;64.55;100717.41;5082045;27;65964;-31
2022/10/25 06:35:08;;;;;;;12.13;11.25;;;;;;;31.99;64.54;100715.28;5079479;27;69478;-31
2022/10/25 06:37:38;;;;;;;11.83;11.13;;;;;;;31.99;64.73;100710.69;5095970;27;65236;-32
2022/10/25 06:40:10;;;;;;;12.82;11.73;;;;;;;32.03;64.76;100695.56;5097399;27;69935;-32
2022/10/25 06:42:41;;;;;;;11.68;10.60;;;;;;;32.01;64.43;100688.72;5094875;27;66056;-31
2022/10/25 06:45:12;;;;;;;13.13;11.90;;;;;;;32.03;64.45;100683.91;5097317;27;69947;-32
2022/10/25 06:47:45;;;;;;;11.80;10.93;;;;;;;31.16;64.49;100533.31;5095054;27;65451;-32
2022/10/25 06:50:16;;;;;;;11.80;11.10;;;;;;;32.11;64.41;100674.59;5095894;27;70448;-32
2022/10/25 06:52:47;;;;;;;11.43;10.60;;;;;;;32.08;64.37;100665.03;5095420;27;65596;-33
2022/10/25 06:55:18;;;;;;;11.90;10.60;;;;;;;32.10;64.36;100662.09;5100259;27;70487;-32
2022/10/25 06:57:49;;;;;;;11.60;10.95;;;;;;;32.02;64.05;100639.66;5098747;27;65245;-32
2022/10/25 07:00:20;;;;;;;14.25;12.77;;;;;;;32.17;64.38;100660.91;5088999;27;70095;-31
2022/10/25 07:02:58;;;;;;;12.27;11.48;;;;;;;32.19;63.94;100650.66;5095372;27;65320;-32
2022/10/25 07:05:29;;;;;;;13.77;12.68;;;;;;;32.20;64.25;100632.47;5092009;27;69783;-32
2022/10/25 07:08:01;;;;;;;12.07;10.93;;;;;;;32.24;64.18;100625.53;5100080;27;65949;-32
2022/10/25 07:10:32;;;;;;;14.70;13.40;;;;;;;32.29;63.99;100625.66;5089193;27;70405;-31
2022/10/25 07:13:03;;;;;;;11.83;10.57;;;;;;;32.25;64.03;100621.75;5087999;27;66481;-31
2022/10/25 07:15:34;;;;;;;9.75;9.15;;;;;;;32.28;64.05;100624.00;5093354;27;70032;-32
2022/10/25 07:18:09;;;;;;;10.05;9.35;;;;;;;32.30;63.86;100630.00;5100328;27;67525;-32
2022/10/25 07:20:39;;;;;;;12.68;11.80;;;;;;;32.31;63.79;100628.94;5089646;27;70263;-33
2022/10/25 07:23:10;;;;;;;12.05;11.05;;;;;;;32.33;63.67;100617.88;5087330;27;65221;-33
2022/10/25 07:25:41;;;;;;;11.23;10.27;;;;;;;32.35;63.74;100613.84;5094652;27;69539;-32
2022/10/25 07:28:12;;;;;;;12.05;11.07;;;;;;;32.36;63.77;100620.09;5090508;27;65645;-31
2022/10/25 07:30:46;;;;;;;10.95;10.15;;;;;;;32.35;63.41;100616.56;5092344;27;69398;-32
2022/10/25 07:33:19;;;;;;;10.98;10.20;;;;;;;31.82;63.43;100525.22;5082345;27;65576;-31
2022/10/25 07:35:50;;;;;;;10.80;10.10;;;;;;;32.39;63.61;100617.72;5082389;27;70042;-32
2022/10/25 07:38:34;;;;;;;10.13;9.43;;;;;;;32.37;63.55;100610.88;5092607;27;66651;-31
2022/10/25 07:41:06;;;;;;;10.10;9.40;;;;;;;32.35;63.60;100616.56;5091104;27;69170;-32
2022/10/25 07:43:36;;;;;;;10.15;9.50;;;;;;;32.39;63.57;100612.31;5096095;27;66112;-32
2022/10/25 07:46:07;;;;;;;10.25;9.32;;;;;;;32.42;63.58;100617.25;5098436;27;70483;-32
2022/10/25 07:48:37;;;;;;;10.07;9.48;;;;;;;32.41;63.41;100618.31;5096735;27;66413;-32
2022/10/25 07:51:14;;;;;;;10.37;9.43;;;;;;;32.42;63.63;100611.00;5082166;27;69829;-32
2022/10/25 07:53:45;;;;;;;11.02;9.75;;;;;;;32.38;63.30;100599.81;5084188;27;65872;-31
2022/10/25 07:56:18;;;;;;;11.32;9.32;;;;;;;31.91;63.48;100521.13;5084366;27;69815;-31
2022/10/25 07:58:52;;;;;;;10.05;9.25;;;;;;;32.44;63.38;100609.72;5093393;27;66298;-31
2022/10/25 08:01:26;;;;;;;9.65;9.05;;;;;;;32.48;63.41;100618.22;5092249;27;70349;-32
2022/10/25 08:03:56;;;;;;;12.82;9.80;;;;;;;32.47;63.44;100598.41;5078919;27;66804;-31
2022/10/25 08:06:27;;;;;;;10.52;9.82;;;;;;;32.49;63.53;100603.59;5090833;27;71027;-32
2022/10/25 08:08:57;;;;;;;10.70;9.93;;;;;;;32.52;63.24;100588.72;5099271;27;66293;-33
2022/10/25 08:11:42;;;;;;;10.73;9.73;;;;;;;32.52;63.48;100588.72;5099109;27;70511;-33
2022/10/25 08:14:13;;;;;;;9.68;9.07;;;;;;;32.56;63.13;100596.13;5091220;27;66250;-32
2022/10/25 08:16:44;;;;;;;9.52;8.60;;;;;;;32.55;63.63;100601.81;5090368;27;69288;-31
2022/10/25 08:19:15;;;;;;;9.70;8.93;;;;;;;32.56;63.40;100600.75;5096662;27;66137;-32
2022/10/25 08:21:47;;;;;;;10.20;9.32;;;;;;;32.57;63.19;100596.97;5098854;27;69706;-33
2022/10/25 08:24:18;;;;;;;9.75;8.98;;;;;;;32.56;63.40;100595.31;5097123;27;66004;-31
2022/10/25 08:26:54;;;;;;;9.63;8.80;;;;;;;32.58;63.25;100604.06;5098063;27;69555;-32
2022/10/25 08:29:28;;;;;;;10.05;9.20;;;;;;;32.59;63.40;100616.56;5087866;27;66580;-33
2022/10/25 08:32:02;;;;;;;9.20;8.60;;;;;;;32.58;63.24;100604.06;5088765;27;70780;-32
2022/10/25 08:34:33;;;;;;;9.90;9.05;;;;;;;32.57;63.44;100597.81;5097561;27;65837;-30
2022/10/25 08:37:05;;;;;;;9.93;9.30;;;;;;;32.59;63.30;100600.28;5096554;27;70007;-32
2022/10/25 08:39:36;;;;;;;10.32;9.38;;;;;;;32.60;63.33;100596.50;5098731;27;65495;-31
2022/10/25 08:42:33;;;;;;;10.10;8.75;;;;;;;32.59;62.91;100589.41;5096480;27;70252;-32
2022/10/25 08:45:14;;;;;;;9.13;8.52;;;;;;;32.57;63.26;100591.53;5093022;27;66423;-32
2022/10/25 08:47:46;;;;;;;9.25;8.65;;;;;;;32.63;63.23;100587.88;5078778;27;69735;-32
2022/10/25 08:50:28;;;;;;;9.27;8.55;;;;;;;32.44;63.11;100555.41;5087265;27;66753;-32
2022/10/25 08:53:03;;;;;;;9.07;8.27;;;;;;;32.51;62.99;100554.47;5095358;27;70398;-32
2022/10/25 08:55:42;;;;;;;9.20;8.52;;;;;;;32.65;62.89;100581.16;5097550;27;66929;-31
2022/10/25 08:58:37;;;;;;;8.45;7.70;;;;;;;32.66;63.02;100584.69;5097480;27;69823;-32
2022/10/25 09:01:19;;;;;;;9.00;8.40;;;;;;;32.53;63.14;100552.34;5097898;27;65807;-32
2022/10/25 09:03:51;;;;;;;8.50;8.00;;;;;;;32.69;63.45;100581.50;5095187;27;69903;-32
2022/10/25 09:06:32;;;;;;;8.70;8.00;;;;;;;32.28;62.89;100520.84;5090615;27;66115;-32
2022/10/25 09:09:25;;;;;;;8.93;8.32;;;;;;;32.69;63.24;100576.06;5090879;27;69963;-33
2022/10/25 09:12:14;;;;;;;8.98;8.00;;;;;;;32.60;63.09;100561.22;5088336;27;65430;-31
2022/10/25 09:15:36;;;;;;;8.13;7.38;;;;;;;32.61;62.93;100571.00;5089703;27;70121;-32
2022/10/25 09:18:16;;;;;;;8.80;8.18;;;;;;;32.69;63.15;100584.19;5091893;27;66097;-34
2022/10/25 09:20:52;;;;;;;12.13;9.00;;;;;;;32.47;64.05;100576.69;5096061;27;70538;-32
2022/10/25 09:23:29;;;;;;;29.00;24.13;;;;;;;32.26;65.94;100577.25;5084275;27;66317;-33
2022/10/25 09:26:06;;;;;;;32.75;29.42;;;;;;;32.14;66.99;100576.44;5097643;27;70557;-32
2022/10/25 09:28:54;;;;;;;39.53;35.42;;;;;;;32.05;67.67;100584.13;5087529;27;66901;-32
2022/10/25 09:31:25;;;;;;;41.92;37.47;;;;;;;31.96;68.50;100586.34;5092543;27;69656;-32
2022/10/25 09:34:01;;;;;;;44.15;38.38;;;;;;;31.95;68.41;100605.56;5092095;27;66876;-32
2022/10/25 09:36:55;;;;;;;40.78;36.83;;;;;;;31.92;68.88;100593.28;5089770;27;70026;-32
2022/10/25 09:39:43;;;;;;;41.15;36.90;;;;;;;31.39;69.17;100523.63;5084708;27;65672;-34
2022/10/25 09:42:24;;;;;;;42.90;38.53;;;;;;;31.55;69.31;100563.63;5086972;27;70121;-32
2022/10/25 09:45:02;;;;;;;39.30;35.40;;;;;;;31.39;69.27;100540.72;5085025;27;66212;-33
2022/10/25 09:48:07;;;;;;;42.17;36.35;;;;;;;31.80;69.83;100603.28;5090632;27;69924;-32
2022/10/25 09:51:12;;;;;;;40.63;36.63;;;;;;;31.73;70.05;100613.41;5078001;27;66237;-34
2022/10/25 09:53:45;;;;;;;39.83;35.65;;;;;;;31.26;69.87;100537.34;5090958;27;70418;-32
2022/10/25 09:56:16;;;;;;;36.65;32.17;;;;;;;31.51;70.27;100584.13;5093796;27;65958;-33
2022/10/25 09:58:47;;;;;;;36.67;32.93;;;;;;;31.71;70.51;100631.81;5088732;27;69708;-33
2022/10/25 10:01:26;;;;;;;35.30;31.92;;;;;;;30.82;70.64;100494.22;5097794;27;65812;-31
2022/10/25 10:04:14;;;;;;;34.88;31.45;;;;;;;31.59;70.29;100624.47;5090828;27;70112;-33
2022/10/25 10:06:47;;;;;;;32.85;29.42;;;;;;;31.70;70.91;100640.97;5092995;27;66497;-32
2022/10/25 10:09:20;;;;;;;31.33;28.33;;;;;;;31.74;70.72;100642.19;5088892;27;70206;-33
2022/10/25 10:11:53;;;;;;;32.78;29.77;;;;;;;31.71;71.05;100642.66;5097081;27;65546;-31
2022/10/25 10:14:40;;;;;;;32.40;28.88;;;;;;;31.12;71.13;100570.06;5099229;27;69824;-31
2022/10/25 10:17:16;;;;;;;38.30;28.98;;;;;;;31.25;71.01;100581.75;5095036;27;65400;-32
2022/10/25 10:20:16;;;;;;;30.70;27.80;;;;;;;31.69;72.22;100674.59;5084730;27;69728;-32
2022/10/25 10:22:52;;;;;;;34.38;26.58;;;;;;;31.75;72.25;100676.38;5095456;27;66174;-34
2022/10/25 10:25:27;;;;;;;29.02;26.23;;;;;;;31.35;72.51;100622.69;5096290;27;70459;-33
2022/10/25 10:27:58;;;;;;;28.48;25.10;;;;;;;31.71;72.28;100680.63;5095949;27;65810;-35
2022/10/25 10:30:31;;;;;;;25.75;23.08;;;;;;;31.78;72.79;100689.47;5099029;27;70224;-34
2022/10/25 10:33:03;;;;;;;26.65;24.00;;;;;;;31.77;72.20;100687.81;5092733;27;66459;-32
2022/10/25 10:35:36;;;;;;;26.15;23.77;;;;;;;31.74;72.42;100688.28;5090464;27;69931;-32
2022/10/25 10:38:26;;;;;;;23.73;21.73;;;;;;;31.75;71.99;100685.31;5085563;27;66891;-33
2022/10/25 10:41:26;;;;;;;24.25;22.13;;;;;;;31.57;72.16;100659.13;5089351;27;70189;-34
2022/10/25 10:44:11;;;;;;;26.33;21.35;;;;;;;31.27;73.12;100620.31;5092876;27;66086;-33
2022/10/25 10:46:48;;;;;;;29.60;21.02;;;;;;;31.63;73.75;100678.22;5098034;27;70619;-32
2022/10/25 10:49:25;;;;;;;23.50;20.70;;;;;;;31.86;71.22;100674.75;5093092;27;65387;-32
2022/10/25 10:51:55;;;;;;;23.10;20.70;;;;;;;32.09;70.86;100698.41;5091580;27;70480;-32
2022/10/25 10:54:30;;;;;;;23.40;21.13;;;;;;;32.01;70.49;100686.88;5100506;27;66650;-32
2022/10/25 10:57:04;;;;;;;24.05;19.80;;;;;;;32.21;70.13;100702.81;5089443;27;70098;-33
2022/10/25 10:59:44;;;;;;;20.95;19.15;;;;;;;32.24;70.73;100707.78;5092691;27;66521;-33
2022/10/25 11:02:34;;;;;;;23.42;19.52;;;;;;;32.24;70.92;100702.34;5098341;27;70156;-32
2022/10/25 11:05:26;;;;;;;23.10;20.08;;;;;;;32.10;71.06;100689.25;5097212;27;65228;-32
2022/10/25 11:08:18;;;;;;;20.85;18.88;;;;;;;32.19;71.33;100712.25;5089963;27;70418;-32
2022/10/25 11:10:49;;;;;;;19.38;17.88;;;;;;;32.32;70.19;100714.75;5100209;27;66198;-33
2022/10/25 11:13:22;;;;;;;18.52;16.88;;;;;;;32.33;70.22;100712.88;5093311;27;70683;-32
2022/10/25 11:16:19;;;;;;;18.13;16.60;;;;;;;32.34;70.47;100728.09;5089501;27;66234;-33
2022/10/25 11:19:17;;;;;;;18.35;16.17;;;;;;;32.27;70.56;100718.16;5086867;27;70034;-33
2022/10/25 11:22:05;;;;;;;18.10;16.27;;;;;;;31.78;70.74;100633.34;5080181;27;65812;-33
2022/10/25 11:25:16;;;;;;;17.98;16.20;;;;;;;32.26;70.62;100726.53;5086677;27;69264;-33
2022/10/25 11:28:13;;;;;;;20.93;16.20;;;;;;;31.51;70.51;100584.13;5090287;27;66493;-33
2022/10/25 11:30:59;;;;;;;18.75;16.15;;;;;;;31.40;70.20;100574.09;5084861;27;69448;-32
2022/10/25 11:33:40;;;;;;;17.15;15.55;;;;;;;32.30;70.36;100727.72;5084442;27;65708;-33
2022/10/25 11:36:34;;;;;;;16.27;14.87;;;;;;;32.26;70.72;100742.81;5088005;27;70597;-36
2022/10/25 11:39:27;;;;;;;15.93;14.50;;;;;;;32.35;70.36;100778.63;5085781;27;67392;-37
2022/10/25 11:42:10;;;;;;;16.38;14.80;;;;;;;31.90;70.52;100722.91;5081426;27;70343;-36
2022/10/25 11:45:02;;;;;;;15.35;13.98;;;;;;;32.32;70.25;100788.06;5082757;27;65977;-37
2022/10/25 11:47:44;;;;;;;17.10;14.55;;;;;;;32.28;70.59;100795.00;5083022;27;70709;-37
2022/10/25 11:50:48;;;;;;;15.00;13.70;;;;;;;31.79;70.39;100724.50;5084629;27;66561;-36
2022/10/25 11:53:34;;;;;;;12.88;12.05;;;;;;;32.24;70.18;100802.78;5081402;27;70434;-37
2022/10/25 11:56:09;;;;;;;12.95;12.02;;;;;;;32.24;70.09;100804.66;5081052;27;66507;-37
2022/10/25 11:58:52;;;;;;;12.95;11.80;;;;;;;32.16;69.97;100796.84;5084312;27;69110;-37